Terminal Aerodrome Forecast
Issued by NWS Albany, NY

Home | Current Version | Previous Version | Text Only | Print | Product List | Glossary On
Versions: 1 2 3 4 5 6 7 8 9 10 11 12 13 14 15 16
000
FTUS41 KALY 271744
TAFGFL
TAF
KGFL 271744Z 2718/2818 05005KT P6SM VCSH OVC035
      TEMPO 2718/2721 6SM -SHRA BR OVC025
     FM280000 14006KT P6SM VCSH OVC030
     FM280300 VRB03KT P6SM VCSH SCT025 OVC035 PROB30 2803/2806 4SM
      -SHRA BR OVC025
     FM281200 15005KT P6SM OVC035
     FM281600 19006KT P6SM BKN040=

USA.gov is the U.S. government's official web portal to all federal, state and local government web resources and services.